createdAt,value
2022-10-28T00:01:41.474Z,39.68
2022-10-28T00:04:44.513Z,39.38
2022-10-28T00:07:48.934Z,39.88
2022-10-28T00:10:52.747Z,39.69
2022-10-28T00:13:56.549Z,39.52
2022-10-28T00:16:59.548Z,39.81
2022-10-28T00:20:02.894Z,39.46
2022-10-28T00:23:10.062Z,39.57
2022-10-28T00:26:14.816Z,39.89
2022-10-28T00:29:19.859Z,39.73
2022-10-28T00:32:23.120Z,39.42
2022-10-28T00:35:26.088Z,39.51
2022-10-28T00:38:31.837Z,39.66
2022-10-28T00:41:37.384Z,39.27
2022-10-28T00:44:58.462Z,39.39
2022-10-28T00:48:03.479Z,39.41
2022-10-28T00:51:06.816Z,39.28
2022-10-28T00:54:13.420Z,39.94
2022-10-28T00:57:19.630Z,39.71
2022-10-28T01:00:22.836Z,39.46
2022-10-28T01:03:26.570Z,39.66
2022-10-28T01:06:30.407Z,39.55
2022-10-28T01:09:35.025Z,39.77
2022-10-28T01:12:49.229Z,39.56
2022-10-28T01:16:00.024Z,39.47
2022-10-28T01:19:52.046Z,39.72
2022-10-28T01:23:05.016Z,39.38
2022-10-28T01:26:39.519Z,39.71
2022-10-28T01:30:14.954Z,39.44
2022-10-28T01:33:26.429Z,39.59
2022-10-28T01:36:37.235Z,39.54
2022-10-28T01:39:47.174Z,39.53
2022-10-28T01:42:57.282Z,39.64
2022-10-28T01:46:04.381Z,39.35
2022-10-28T01:49:16.775Z,39.61
2022-10-28T01:52:24.561Z,39.53
2022-10-28T01:55:29.590Z,39.30
2022-10-28T01:58:34.241Z,39.18
2022-10-28T02:01:37.867Z,39.21
2022-10-28T02:04:42.734Z,39.60
2022-10-28T02:07:48.503Z,39.61
2022-10-28T02:11:03.032Z,39.68
2022-10-28T02:14:19.125Z,39.51
2022-10-28T02:17:32.566Z,39.76
2022-10-28T02:20:47.828Z,39.67
2022-10-28T02:23:56.875Z,39.07
2022-10-28T02:27:06.780Z,39.57
2022-10-28T02:30:19.815Z,39.54
2022-10-28T02:33:26.867Z,39.58
2022-10-28T02:36:37.096Z,39.79
2022-10-28T02:39:44.759Z,39.51
2022-10-28T02:42:51.593Z,39.67
2022-10-28T02:45:59.375Z,39.42
2022-10-28T02:49:06.478Z,39.53
2022-10-28T02:52:12.497Z,39.90
2022-10-28T02:55:15.695Z,39.64
2022-10-28T02:58:21.866Z,39.64
2022-10-28T03:01:25.245Z,39.87
2022-10-28T03:04:28.414Z,39.61
2022-10-28T03:07:32.824Z,39.95
2022-10-28T03:10:36.002Z,39.72
2022-10-28T03:13:38.999Z,39.39
2022-10-28T03:16:42.197Z,39.37
2022-10-28T03:19:45.202Z,39.48
2022-10-28T03:22:49.720Z,39.69
2022-10-28T03:25:52.933Z,39.27
2022-10-28T03:28:56.054Z,39.47
2022-10-28T03:31:59.097Z,39.63
2022-10-28T03:35:02.084Z,39.76
2022-10-28T03:38:06.860Z,39.87
2022-10-28T03:41:09.872Z,39.75
2022-10-28T03:44:13.179Z,39.34
2022-10-28T03:47:16.293Z,38.69
2022-10-28T03:50:19.289Z,38.21
2022-10-28T03:53:27.537Z,37.97
2022-10-28T03:56:32.048Z,38.76
2022-10-28T03:59:35.078Z,38.38
2022-10-28T04:02:38.039Z,38.27
2022-10-28T04:05:41.084Z,37.64
2022-10-28T04:08:45.521Z,38.89
2022-10-28T04:11:49.425Z,38.50
2022-10-28T04:14:53.563Z,38.72
2022-10-28T04:17:56.616Z,38.99
2022-10-28T04:20:59.849Z,38.24
2022-10-28T04:24:04.307Z,37.20
2022-10-28T04:27:08.947Z,37.09
2022-10-28T04:30:14.452Z,36.76
2022-10-28T04:33:17.832Z,36.74
2022-10-28T04:36:21.097Z,36.66
2022-10-28T04:39:25.632Z,36.78
2022-10-28T04:42:29.226Z,36.35
2022-10-28T04:45:33.104Z,36.39
2022-10-28T04:48:37.187Z,36.36
2022-10-28T04:51:43.502Z,36.81
2022-10-28T04:54:48.163Z,36.54
2022-10-28T04:57:57.863Z,36.43
2022-10-28T05:01:00.937Z,36.51
2022-10-28T05:04:04.102Z,36.78
2022-10-28T05:07:07.556Z,36.80
2022-10-28T05:10:15.572Z,36.75
2022-10-28T05:13:21.537Z,36.61
2022-10-28T05:16:24.678Z,36.69
2022-10-28T05:19:27.743Z,37.09
2022-10-28T05:22:30.779Z,36.86
2022-10-28T05:25:35.462Z,36.79
2022-10-28T05:28:38.748Z,37.00
2022-10-28T05:31:41.812Z,37.21
2022-10-28T05:34:45.931Z,36.95
2022-10-28T05:37:49.033Z,36.97
2022-10-28T05:40:53.586Z,37.00
2022-10-28T05:43:59.498Z,37.21
2022-10-28T05:47:02.698Z,37.13
2022-10-28T05:50:06.390Z,37.00
2022-10-28T05:53:09.411Z,36.95
2022-10-28T05:56:14.381Z,39.02
2022-10-28T05:59:17.547Z,38.85
2022-10-28T06:02:20.677Z,37.91
2022-10-28T06:05:23.658Z,36.71
2022-10-28T06:08:26.869Z,34.87
2022-10-28T06:11:31.772Z,35.89
2022-10-28T06:14:35.003Z,36.51
2022-10-28T06:17:38.016Z,36.66
2022-10-28T06:20:41.073Z,36.78
2022-10-28T06:23:44.092Z,36.75
2022-10-28T06:26:48.661Z,36.43
2022-10-28T06:29:52.609Z,36.62
2022-10-28T06:32:56.903Z,36.47
2022-10-28T06:36:01.127Z,36.18
2022-10-28T06:39:04.602Z,36.04
2022-10-28T06:42:09.151Z,35.87
2022-10-28T06:45:14.854Z,35.63
2022-10-28T06:48:19.445Z,35.52
2022-10-28T06:51:22.848Z,35.29
2022-10-28T06:54:25.893Z,35.42
2022-10-28T06:57:30.271Z,35.62
2022-10-28T07:00:33.806Z,35.58
2022-10-28T07:03:36.976Z,35.15
2022-10-28T07:06:40.088Z,35.45
2022-10-28T07:09:47.685Z,35.54
2022-10-28T07:12:53.991Z,35.58
2022-10-28T07:15:58.997Z,35.40
2022-10-28T07:19:02.006Z,35.38
2022-10-28T07:22:05.401Z,35.41
2022-10-28T07:25:09.350Z,35.83
2022-10-28T07:28:13.799Z,35.54
2022-10-28T07:31:17.187Z,35.43
2022-10-28T07:34:26.764Z,35.68
2022-10-28T07:37:30.635Z,35.45
2022-10-28T07:40:33.950Z,35.50
2022-10-28T07:43:39.182Z,35.79
2022-10-28T07:46:43.105Z,35.70
2022-10-28T07:49:48.902Z,35.67
2022-10-28T07:52:52.439Z,35.21
2022-10-28T07:55:57.176Z,34.98
2022-10-28T07:59:02.106Z,35.14
2022-10-28T08:02:05.410Z,35.05
2022-10-28T08:05:09.127Z,35.14
2022-10-28T08:08:12.383Z,35.46
2022-10-28T08:11:19.410Z,35.01
2022-10-28T08:14:25.227Z,35.42
2022-10-28T08:17:28.311Z,35.27
2022-10-28T08:20:31.466Z,35.25
2022-10-28T08:23:39.195Z,35.08
2022-10-28T08:26:43.512Z,35.48
2022-10-28T08:29:48.311Z,35.17
2022-10-28T08:32:51.847Z,35.21
2022-10-28T08:35:55.551Z,35.34
2022-10-28T08:38:59.369Z,35.41
2022-10-28T08:42:16.795Z,35.58
2022-10-28T08:45:27.264Z,35.42
2022-10-28T08:48:34.007Z,35.30
2022-10-28T08:51:42.487Z,35.49
2022-10-28T08:54:51.546Z,35.17
2022-10-28T08:57:57.879Z,35.52
2022-10-28T09:01:02.710Z,35.38
2022-10-28T09:04:17.739Z,35.53
2022-10-28T09:07:23.970Z,35.65
2022-10-28T09:10:48.084Z,35.67
2022-10-28T09:14:06.302Z,35.53
2022-10-28T09:17:22.022Z,35.82
2022-10-28T09:20:37.921Z,35.86
2022-10-28T09:23:49.605Z,35.47
2022-10-28T09:27:02.781Z,35.41
2022-10-28T09:30:22.556Z,35.88
2022-10-28T09:33:52.874Z,35.21
2022-10-28T09:37:00.015Z,35.54
2022-10-28T09:40:07.001Z,35.52
2022-10-28T09:43:23.190Z,35.85
2022-10-28T09:46:33.347Z,35.77
2022-10-28T09:49:42.191Z,35.22
2022-10-28T09:52:54.696Z,36.01
2022-10-28T09:55:58.383Z,35.73
2022-10-28T09:59:04.089Z,35.83
2022-10-28T10:02:26.480Z,35.63
2022-10-28T10:05:34.979Z,35.74
2022-10-28T10:08:39.015Z,35.88
2022-10-28T10:11:45.491Z,35.81
2022-10-28T10:14:51.514Z,35.78
2022-10-28T10:17:56.724Z,35.61
2022-10-28T10:21:02.770Z,35.70
2022-10-28T10:24:32.214Z,36.19
2022-10-28T10:27:35.874Z,35.96
2022-10-28T10:30:41.322Z,36.03
2022-10-28T10:33:44.500Z,35.98
2022-10-28T10:36:55.783Z,36.06
2022-10-28T10:40:07.498Z,36.42
2022-10-28T10:43:30.921Z,36.59
2022-10-28T10:46:34.191Z,36.65
2022-10-28T10:49:37.575Z,36.42
2022-10-28T10:52:50.272Z,36.34
2022-10-28T10:55:57.124Z,36.49
2022-10-28T10:59:04.496Z,36.63
2022-10-28T11:02:23.892Z,36.75
2022-10-28T11:05:32.139Z,36.38
2022-10-28T11:08:44.499Z,36.35
2022-10-28T11:11:47.928Z,36.88
2022-10-28T11:14:56.935Z,36.70
2022-10-28T11:18:03.076Z,36.57
2022-10-28T11:21:12.160Z,36.78
2022-10-28T11:24:30.929Z,36.29
2022-10-28T11:27:55.391Z,36.16
2022-10-28T11:31:15.471Z,36.23
2022-10-28T11:34:39.831Z,36.19
2022-10-28T11:37:58.539Z,36.18
2022-10-28T11:41:18.544Z,36.14
2022-10-28T11:44:33.606Z,35.97
2022-10-28T11:47:54.288Z,36.08
2022-10-28T11:51:09.196Z,36.15
2022-10-28T11:54:27.258Z,36.74
2022-10-28T11:57:46.826Z,36.35
2022-10-28T12:01:01.893Z,36.40
2022-10-28T12:04:14.837Z,36.20
2022-10-28T12:07:48.782Z,36.12
2022-10-28T12:11:12.216Z,36.15
2022-10-28T12:14:24.048Z,36.41
2022-10-28T12:17:35.254Z,36.15
2022-10-28T12:20:43.698Z,37.13
2022-10-28T12:23:49.349Z,37.67
2022-10-28T12:26:58.273Z,38.12
2022-10-28T12:30:08.620Z,38.21
2022-10-28T12:33:16.990Z,37.59
2022-10-28T12:36:26.557Z,37.09
2022-10-28T12:39:33.061Z,36.93
2022-10-28T12:42:44.835Z,37.12
2022-10-28T12:45:51.468Z,36.79
2022-10-28T12:48:59.123Z,36.91
2022-10-28T12:52:10.696Z,36.29
2022-10-28T12:55:26.981Z,36.57
2022-10-28T12:58:34.965Z,36.36
2022-10-28T13:01:40.260Z,36.31
2022-10-28T13:04:43.702Z,35.93
2022-10-28T13:08:01.520Z,35.90
2022-10-28T13:11:27.823Z,36.03
2022-10-28T13:15:14.166Z,36.10
2022-10-28T13:18:53.158Z,35.90
2022-10-28T13:22:13.404Z,35.95
2022-10-28T13:25:34.485Z,36.06
2022-10-28T13:28:45.168Z,36.01
2022-10-28T13:31:49.150Z,35.63
2022-10-28T13:34:53.992Z,35.98
2022-10-28T13:41:34.929Z,35.83
2022-10-28T13:44:51.609Z,35.96
2022-10-28T13:48:48.044Z,35.74
2022-10-28T13:52:00.627Z,35.56
2022-10-28T13:55:34.697Z,35.26
2022-10-28T13:58:51.773Z,35.49
2022-10-28T14:02:32.342Z,35.30
2022-10-28T14:05:47.648Z,35.74
2022-10-28T14:08:52.386Z,35.55
2022-10-28T14:12:12.864Z,35.49
2022-10-28T14:15:22.465Z,35.36
2022-10-28T14:22:02.477Z,35.36
2022-10-28T14:25:48.569Z,35.02
2022-10-28T14:28:56.279Z,34.82
2022-10-28T14:31:59.441Z,35.84
2022-10-28T14:35:04.571Z,36.28
2022-10-28T14:38:44.376Z,36.26
2022-10-28T14:42:02.699Z,35.75
2022-10-28T14:45:21.811Z,36.06
2022-10-28T14:48:46.570Z,36.37
2022-10-28T14:51:51.397Z,35.78
2022-10-28T14:54:57.094Z,35.80
2022-10-28T14:58:22.830Z,36.00
2022-10-28T15:01:29.139Z,36.27
2022-10-28T15:04:32.747Z,36.36
2022-10-28T15:07:38.261Z,35.93
2022-10-28T15:10:46.430Z,36.29
2022-10-28T15:13:53.645Z,36.11
2022-10-28T15:16:57.118Z,35.85
2022-10-28T15:20:02.113Z,36.07
2022-10-28T15:23:17.288Z,36.23
2022-10-28T15:26:20.911Z,35.72
2022-10-28T15:29:26.214Z,36.46
2022-10-28T15:32:32.363Z,36.83
2022-10-28T15:35:39.935Z,37.66
2022-10-28T15:38:44.517Z,38.61
2022-10-28T15:41:51.090Z,38.50
2022-10-28T15:44:58.261Z,38.73
2022-10-28T15:48:03.737Z,39.06
2022-10-28T15:51:13.998Z,39.15
2022-10-28T15:54:21.006Z,39.00
2022-10-28T15:57:26.285Z,39.09
2022-10-28T16:00:32.569Z,40.19
2022-10-28T16:03:47.234Z,40.03
2022-10-28T16:06:52.078Z,39.87
2022-10-28T16:09:56.136Z,39.59
2022-10-28T16:12:59.300Z,39.61
2022-10-28T16:16:08.344Z,39.17
2022-10-28T16:19:19.169Z,38.96
2022-10-28T16:22:24.714Z,38.94
2022-10-28T16:25:27.677Z,38.82
2022-10-28T16:28:32.666Z,38.13
2022-10-28T16:31:37.125Z,37.50
2022-10-28T16:34:40.367Z,36.21
2022-10-28T16:37:46.539Z,36.86
2022-10-28T16:40:52.601Z,36.93
2022-10-28T16:43:56.175Z,37.27
2022-10-28T16:47:01.194Z,36.91
2022-10-28T16:50:04.398Z,37.57
2022-10-28T16:53:07.367Z,37.83
2022-10-28T16:56:14.052Z,37.61
2022-10-28T16:59:19.466Z,38.12
2022-10-28T17:02:28.681Z,38.03
2022-10-28T17:05:32.200Z,37.94
2022-10-28T17:09:04.217Z,38.47
2022-10-28T17:11:58.264Z,38.59
2022-10-28T17:15:01.301Z,38.54
2022-10-28T17:18:05.877Z,38.56
2022-10-28T17:21:09.186Z,38.67
2022-10-28T17:24:12.270Z,38.83
2022-10-28T17:27:15.521Z,38.79
2022-10-28T17:30:19.348Z,38.66
2022-10-28T17:33:23.835Z,38.99
2022-10-28T17:36:26.833Z,39.08
2022-10-28T17:39:30.275Z,38.91
2022-10-28T17:42:33.734Z,38.73
2022-10-28T17:45:37.038Z,39.28
2022-10-28T17:48:41.432Z,38.94
2022-10-28T17:51:44.751Z,39.40
2022-10-28T17:54:47.735Z,39.17
2022-10-28T17:57:50.771Z,39.08
2022-10-28T18:00:58.580Z,39.43
2022-10-28T18:04:04.749Z,39.65
2022-10-28T18:07:07.814Z,39.58
2022-10-28T18:10:11.367Z,39.67
2022-10-28T18:13:14.359Z,39.93
2022-10-28T18:16:18.887Z,40.15
2022-10-28T18:19:23.294Z,39.97
2022-10-28T18:25:29.466Z,39.78
2022-10-28T18:28:33.232Z,39.62
2022-10-28T18:31:36.373Z,39.53
2022-10-28T18:34:40.876Z,39.31
2022-10-28T18:37:44.163Z,39.83
2022-10-28T18:40:47.991Z,39.52
2022-10-28T18:43:55.001Z,39.75
2022-10-28T18:46:58.523Z,39.71
2022-10-28T18:50:03.020Z,39.66
2022-10-28T18:53:06.217Z,39.84
2022-10-28T18:56:11.852Z,40.00
2022-10-28T18:59:14.951Z,40.21
2022-10-28T19:02:18.020Z,40.53
2022-10-28T19:05:22.552Z,40.44
2022-10-28T19:08:25.642Z,40.30
2022-10-28T19:11:31.410Z,40.60
2022-10-28T19:14:35.111Z,40.36
2022-10-28T19:17:38.134Z,40.29
2022-10-28T19:20:42.597Z,40.46
2022-10-28T19:23:45.621Z,40.85
2022-10-28T19:26:48.708Z,40.86
2022-10-28T19:29:51.707Z,40.73
2022-10-28T19:32:54.984Z,40.84
2022-10-28T19:36:04.637Z,40.37
2022-10-28T19:39:08.066Z,40.90
2022-10-28T19:42:11.072Z,40.88
2022-10-28T19:45:14.079Z,41.22
2022-10-28T19:48:17.091Z,41.37
2022-10-28T19:51:23.512Z,40.90
2022-10-28T19:54:26.477Z,40.94
2022-10-28T19:57:29.515Z,41.61
2022-10-28T20:00:32.483Z,41.30
2022-10-28T20:03:36.903Z,41.69
2022-10-28T20:06:43.029Z,41.74
2022-10-28T20:09:46.071Z,41.89
2022-10-28T20:12:49.065Z,41.85
2022-10-28T20:15:52.019Z,41.75
2022-10-28T20:18:56.110Z,41.68
2022-10-28T20:22:00.525Z,42.24
2022-10-28T20:25:08.522Z,42.21
2022-10-28T20:28:11.586Z,42.04
2022-10-28T20:31:16.297Z,42.11
2022-10-28T20:34:19.455Z,41.83
2022-10-28T20:37:23.895Z,42.41
2022-10-28T20:40:26.946Z,42.00
2022-10-28T20:43:30.936Z,39.24
2022-10-28T20:46:34.511Z,40.38
2022-10-28T20:49:39.255Z,40.22
2022-10-28T20:52:43.602Z,40.00
2022-10-28T20:55:46.761Z,40.17
2022-10-28T20:58:49.840Z,40.25
2022-10-28T21:01:52.901Z,40.12
2022-10-28T21:04:56.067Z,40.00
2022-10-28T21:08:00.590Z,39.79
2022-10-28T21:11:03.747Z,39.59
2022-10-28T21:14:06.847Z,39.60
2022-10-28T21:17:09.849Z,39.62
2022-10-28T21:20:13.491Z,39.68
2022-10-28T21:23:17.869Z,39.09
2022-10-28T21:26:21.057Z,38.98
2022-10-28T21:29:24.164Z,39.08
2022-10-28T21:32:27.913Z,38.83
2022-10-28T21:35:30.940Z,38.96
2022-10-28T21:38:36.496Z,38.60
2022-10-28T21:41:39.487Z,38.62
2022-10-28T21:44:42.484Z,39.02
2022-10-28T21:47:45.560Z,38.92
2022-10-28T21:50:51.879Z,38.43
2022-10-28T21:53:56.345Z,38.95
2022-10-28T21:56:59.380Z,38.75
2022-10-28T22:00:02.647Z,38.67
2022-10-28T22:03:05.653Z,38.65
2022-10-28T22:06:09.348Z,38.51
2022-10-28T22:09:13.904Z,38.67
2022-10-28T22:12:17.002Z,38.78
2022-10-28T22:15:19.985Z,38.83
2022-10-28T22:18:23.035Z,38.24
2022-10-28T22:21:27.874Z,38.59
2022-10-28T22:24:32.539Z,38.61
2022-10-28T22:27:35.494Z,38.40
2022-10-28T22:30:38.563Z,38.75
2022-10-28T22:33:42.361Z,38.23
2022-10-28T22:36:47.687Z,38.30
2022-10-28T22:39:52.079Z,38.67
2022-10-28T22:42:55.077Z,38.67
2022-10-28T22:45:58.164Z,38.63
2022-10-28T22:49:01.437Z,38.42
2022-10-28T22:52:04.493Z,38.33
2022-10-28T22:55:09.778Z,38.32
2022-10-28T22:58:12.806Z,38.19
2022-10-28T23:01:18.234Z,38.58
2022-10-28T23:04:21.349Z,38.26
2022-10-28T23:07:24.425Z,38.42
2022-10-28T23:10:29.254Z,38.02
2022-10-28T23:13:32.450Z,38.49
2022-10-28T23:16:35.445Z,38.34
2022-10-28T23:19:38.421Z,38.00
2022-10-28T23:22:41.405Z,38.37
2022-10-28T23:25:52.968Z,38.15
2022-10-28T23:28:57.856Z,38.07
2022-10-28T23:32:00.856Z,37.93
2022-10-28T23:35:03.936Z,37.98
2022-10-28T23:38:09.092Z,37.95
2022-10-28T23:41:16.273Z,38.21
2022-10-28T23:44:19.367Z,38.32
2022-10-28T23:47:22.350Z,38.34
2022-10-28T23:50:25.332Z,38.18
2022-10-28T23:53:30.607Z,37.90
2022-10-28T23:56:35.469Z,38.22
2022-10-28T23:59:38.593Z,37.87
